Weather at Parker Heliport

Public forecast

Using degrees Fahrenheit for public forecast. Weather courtesy of forecast.io.

Closest aviation weather report (METAR) to Parker Heliport

Closest report is Worcester Regional Airport, 3.5 nm (6.4 km) W. Retrieved 2020/09/29 16:54 UTC (25 minutes ago):

KORH 291654Z 19009KT 10SM BKN060 BKN080 23/16 A2993 RMK AO2 SLP131 T02280161

Closest aviation forecast (TAF) to Parker Heliport

Closest forecast is Worcester Regional Airport, 3.5 nm (6.4 km) W. Retrieved 2020/09/29 12:24 UTC (5 hours ago):

TAF KORH 291122Z 2912/3012 20006KT P6SM OVC006 FM291300 20006KT P6SM BKN008 FM291400 20009KT P6SM BKN015 FM291600 19008KT P6SM BKN030 FM292300 18007KT P6SM VCSH BKN015 FM300300 17007KT 3SM BR VCSH OVC008